sensor_id;sensor_type;location;lat;lon;timestamp;temperature;humidity
21563;DHT22;10942;47.894;11.424;2024-03-23T00:52:47;8.60;99.90
21563;DHT22;10942;47.894;11.424;2024-03-23T00:55:12;8.60;99.90
21563;DHT22;10942;47.894;11.424;2024-03-23T00:57:38;8.40;99.90
21563;DHT22;10942;47.894;11.424;2024-03-23T01:00:06;8.50;99.90
21563;DHT22;10942;47.894;11.424;2024-03-23T01:02:32;8.40;99.90
21563;DHT22;10942;47.894;11.424;2024-03-23T01:04:58;8.40;99.90
21563;DHT22;10942;47.894;11.424;2024-03-23T01:09:50;8.30;99.90
21563;DHT22;10942;47.894;11.424;2024-03-23T01:12:17;8.30;99.90
21563;DHT22;10942;47.894;11.424;2024-03-23T01:17:09;8.20;99.90
21563;DHT22;10942;47.894;11.424;2024-03-23T01:19:35;8.20;99.90
21563;DHT22;10942;47.894;11.424;2024-03-23T01:22:00;8.10;99.90
21563;DHT22;10942;47.894;11.424;2024-03-23T01:24:26;8.00;99.90
21563;DHT22;10942;47.894;11.424;2024-03-23T01:26:52;8.00;99.90
21563;DHT22;10942;47.894;11.424;2024-03-23T01:29:17;8.00;99.90
21563;DHT22;10942;47.894;11.424;2024-03-23T01:31:43;8.10;99.90
21563;DHT22;10942;47.894;11.424;2024-03-23T01:34:08;8.00;99.90
21563;DHT22;10942;47.894;11.424;2024-03-23T01:36:34;8.00;99.90
21563;DHT22;10942;47.894;11.424;2024-03-23T01:39:00;7.90;99.90
21563;DHT22;10942;47.894;11.424;2024-03-23T01:41:25;7.90;99.90
21563;DHT22;10942;47.894;11.424;2024-03-23T01:43:51;7.90;99.90
21563;DHT22;10942;47.894;11.424;2024-03-23T01:46:17;7.90;99.90
21563;DHT22;10942;47.894;11.424;2024-03-23T01:48:43;7.90;99.90
21563;DHT22;10942;47.894;11.424;2024-03-23T01:51:09;7.90;99.90
21563;DHT22;10942;47.894;11.424;2024-03-23T01:53:35;7.90;99.90
21563;DHT22;10942;47.894;11.424;2024-03-23T01:56:02;7.90;99.90
21563;DHT22;10942;47.894;11.424;2024-03-23T01:58:27;7.90;99.90
21563;DHT22;10942;47.894;11.424;2024-03-23T02:00:53;7.90;99.90
21563;DHT22;10942;47.894;11.424;2024-03-23T02:03:26;7.90;99.90
21563;DHT22;10942;47.894;11.424;2024-03-23T02:05:53;7.90;99.90
21563;DHT22;10942;47.894;11.424;2024-03-23T02:08:21;7.80;99.90
21563;DHT22;10942;47.894;11.424;2024-03-23T02:10:48;7.80;99.90
21563;DHT22;10942;47.894;11.424;2024-03-23T02:13:15;7.80;99.90
21563;DHT22;10942;47.894;11.424;2024-03-23T02:15:41;7.80;99.90
21563;DHT22;10942;47.894;11.424;2024-03-23T02:18:07;7.80;99.90
21563;DHT22;10942;47.894;11.424;2024-03-23T02:20:34;7.80;99.90
21563;DHT22;10942;47.894;11.424;2024-03-23T02:23:00;7.80;99.90
21563;DHT22;10942;47.894;11.424;2024-03-23T02:25:26;7.80;99.90
21563;DHT22;10942;47.894;11.424;2024-03-23T02:27:51;7.70;99.90
21563;DHT22;10942;47.894;11.424;2024-03-23T02:30:19;7.60;99.90
21563;DHT22;10942;47.894;11.424;2024-03-23T02:32:45;7.60;99.90
21563;DHT22;10942;47.894;11.424;2024-03-23T02:35:11;7.60;99.90
21563;DHT22;10942;47.894;11.424;2024-03-23T02:42:30;7.20;99.90
21563;DHT22;10942;47.894;11.424;2024-03-23T02:49:48;7.30;99.90
21563;DHT22;10942;47.894;11.424;2024-03-23T02:52:14;7.30;99.90
21563;DHT22;10942;47.894;11.424;2024-03-23T02:54:39;7.30;99.90
21563;DHT22;10942;47.894;11.424;2024-03-23T02:57:07;7.30;99.90
21563;DHT22;10942;47.894;11.424;2024-03-23T02:59:33;7.30;99.90
21563;DHT22;10942;47.894;11.424;2024-03-23T03:01:58;7.50;99.90
21563;DHT22;10942;47.894;11.424;2024-03-23T03:06:51;7.20;99.90
21563;DHT22;10942;47.894;11.424;2024-03-23T03:09:17;7.10;99.90
21563;DHT22;10942;47.894;11.424;2024-03-23T04:27:35;6.40;99.90
21563;DHT22;10942;47.894;11.424;2024-03-23T04:30:02;6.40;99.90
21563;DHT22;10942;47.894;11.424;2024-03-23T04:32:28;6.40;99.90
21563;DHT22;10942;47.894;11.424;2024-03-23T04:34:54;6.20;99.90
21563;DHT22;10942;47.894;11.424;2024-03-23T04:42:15;6.00;99.90
21563;DHT22;10942;47.894;11.424;2024-03-23T04:47:08;6.00;99.90
21563;DHT22;10942;47.894;11.424;2024-03-23T04:49:33;6.00;99.90
21563;DHT22;10942;47.894;11.424;2024-03-23T04:54:30;5.90;99.90
21563;DHT22;10942;47.894;11.424;2024-03-23T04:56:58;5.90;99.90
21563;DHT22;10942;47.894;11.424;2024-03-23T04:59:23;5.90;99.90
21563;DHT22;10942;47.894;11.424;2024-03-23T05:01:49;5.80;99.90
21563;DHT22;10942;47.894;11.424;2024-03-23T05:04:15;5.80;99.90
21563;DHT22;10942;47.894;11.424;2024-03-23T05:06:41;5.80;99.90
21563;DHT22;10942;47.894;11.424;2024-03-23T05:09:07;5.80;99.90
21563;DHT22;10942;47.894;11.424;2024-03-23T05:11:36;5.80;99.90
21563;DHT22;10942;47.894;11.424;2024-03-23T05:14:01;5.80;99.90
21563;DHT22;10942;47.894;11.424;2024-03-23T05:16:28;5.90;99.90
21563;DHT22;10942;47.894;11.424;2024-03-23T05:18:54;5.90;99.90
21563;DHT22;10942;47.894;11.424;2024-03-23T05:21:20;5.80;99.90
21563;DHT22;10942;47.894;11.424;2024-03-23T05:23:45;5.90;99.90
21563;DHT22;10942;47.894;11.424;2024-03-23T05:26:11;6.00;99.90
21563;DHT22;10942;47.894;11.424;2024-03-23T05:28:37;6.00;99.90
21563;DHT22;10942;47.894;11.424;2024-03-23T05:31:02;6.10;99.90
21563;DHT22;10942;47.894;11.424;2024-03-23T05:33:29;6.20;99.90
21563;DHT22;10942;47.894;11.424;2024-03-23T05:35:58;6.30;99.90
21563;DHT22;10942;47.894;11.424;2024-03-23T05:38:24;6.50;99.90
21563;DHT22;10942;47.894;11.424;2024-03-23T05:43:23;7.10;99.90
21563;DHT22;10942;47.894;11.424;2024-03-23T05:50:50;8.10;99.90
21563;DHT22;10942;47.894;11.424;2024-03-23T05:53:17;8.50;99.90
21563;DHT22;10942;47.894;11.424;2024-03-23T06:00:36;9.20;99.90
21563;DHT22;10942;47.894;11.424;2024-03-23T06:03:01;9.30;99.90
21563;DHT22;10942;47.894;11.424;2024-03-23T06:27:28;12.30;99.90
21563;DHT22;10942;47.894;11.424;2024-03-23T06:39:39;13.20;99.90
21563;DHT22;10942;47.894;11.424;2024-03-23T06:42:05;13.50;99.90
21563;DHT22;10942;47.894;11.424;2024-03-23T06:49:23;14.30;99.90
21563;DHT22;10942;47.894;11.424;2024-03-23T06:51:49;14.10;99.90
21563;DHT22;10942;47.894;11.424;2024-03-23T06:54:19;14.20;99.90
21563;DHT22;10942;47.894;11.424;2024-03-23T06:56:44;14.40;99.90
21563;DHT22;10942;47.894;11.424;2024-03-23T07:01:36;14.40;99.90
21563;DHT22;10942;47.894;11.424;2024-03-23T07:06:30;15.20;99.90
21563;DHT22;10942;47.894;11.424;2024-03-23T07:08:56;15.80;99.90
21563;DHT22;10942;47.894;11.424;2024-03-23T07:11:22;16.00;99.90
21563;DHT22;10942;47.894;11.424;2024-03-23T07:13:52;16.20;99.90
21563;DHT22;10942;47.894;11.424;2024-03-23T07:16:20;16.40;99.90
21563;DHT22;10942;47.894;11.424;2024-03-23T07:23:38;16.10;99.90
21563;DHT22;10942;47.894;11.424;2024-03-23T07:26:05;16.20;99.90
21563;DHT22;10942;47.894;11.424;2024-03-23T07:28:34;15.90;99.90
21563;DHT22;10942;47.894;11.424;2024-03-23T07:31:06;15.30;99.90
21563;DHT22;10942;47.894;11.424;2024-03-23T07:33:32;15.80;99.90
21563;DHT22;10942;47.894;11.424;2024-03-23T07:35:58;15.90;99.90
21563;DHT22;10942;47.894;11.424;2024-03-23T07:38:28;15.50;99.90
21563;DHT22;10942;47.894;11.424;2024-03-23T08:42:39;11.50;99.90
21563;DHT22;10942;47.894;11.424;2024-03-23T08:45:05;11.50;99.90
21563;DHT22;10942;47.894;11.424;2024-03-23T08:47:34;11.30;99.90
21563;DHT22;10942;47.894;11.424;2024-03-23T09:55:53;8.80;99.90
21563;DHT22;10942;47.894;11.424;2024-03-23T09:58:18;8.50;99.90
21563;DHT22;10942;47.894;11.424;2024-03-23T14:24:53;7.30;99.90
21563;DHT22;10942;47.894;11.424;2024-03-23T14:27:19;7.30;99.90
21563;DHT22;10942;47.894;11.424;2024-03-23T14:29:48;7.20;99.90
21563;DHT22;10942;47.894;11.424;2024-03-23T14:32:15;7.10;99.90
21563;DHT22;10942;47.894;11.424;2024-03-23T14:34:41;6.90;99.90
21563;DHT22;10942;47.894;11.424;2024-03-23T14:37:07;6.90;99.90
21563;DHT22;10942;47.894;11.424;2024-03-23T14:39:33;6.90;99.90
21563;DHT22;10942;47.894;11.424;2024-03-23T14:42:03;6.80;99.90
21563;DHT22;10942;47.894;11.424;2024-03-23T14:44:29;6.40;99.90
21563;DHT22;10942;47.894;11.424;2024-03-23T15:01:32;4.70;99.90
21563;DHT22;10942;47.894;11.424;2024-03-23T15:03:58;4.60;99.90
21563;DHT22;10942;47.894;11.424;2024-03-23T15:06:24;4.30;99.90
21563;DHT22;10942;47.894;11.424;2024-03-23T15:13:44;4.60;99.90
21563;DHT22;10942;47.894;11.424;2024-03-23T15:16:10;4.50;99.90
21563;DHT22;10942;47.894;11.424;2024-03-23T15:18:36;4.70;99.90
21563;DHT22;10942;47.894;11.424;2024-03-23T15:21:03;4.90;99.90
21563;DHT22;10942;47.894;11.424;2024-03-23T15:23:33;5.00;99.90
21563;DHT22;10942;47.894;11.424;2024-03-23T15:26:01;5.30;99.90
21563;DHT22;10942;47.894;11.424;2024-03-23T15:28:27;5.40;99.90
21563;DHT22;10942;47.894;11.424;2024-03-23T15:31:14;5.60;99.90
21563;DHT22;10942;47.894;11.424;2024-03-23T15:33:39;5.70;99.90
21563;DHT22;10942;47.894;11.424;2024-03-23T15:36:05;5.80;99.90
21563;DHT22;10942;47.894;11.424;2024-03-23T15:38:32;5.80;99.90
21563;DHT22;10942;47.894;11.424;2024-03-23T15:40:58;5.90;99.90
21563;DHT22;10942;47.894;11.424;2024-03-23T15:43:24;6.10;99.90
21563;DHT22;10942;47.894;11.424;2024-03-23T15:45:57;6.30;99.90
21563;DHT22;10942;47.894;11.424;2024-03-23T15:48:29;6.40;99.90
21563;DHT22;10942;47.894;11.424;2024-03-23T15:50:57;6.50;99.90
21563;DHT22;10942;47.894;11.424;2024-03-23T15:53:24;6.50;99.90
21563;DHT22;10942;47.894;11.424;2024-03-23T15:55:56;6.50;99.90
21563;DHT22;10942;47.894;11.424;2024-03-23T15:58:23;6.60;99.90
21563;DHT22;10942;47.894;11.424;2024-03-23T16:03:27;6.40;99.90
21563;DHT22;10942;47.894;11.424;2024-03-23T16:05:58;6.50;99.90
21563;DHT22;10942;47.894;11.424;2024-03-23T16:08:24;6.50;99.90
21563;DHT22;10942;47.894;11.424;2024-03-23T16:10:50;6.50;99.90
21563;DHT22;10942;47.894;11.424;2024-03-23T16:13:17;6.50;99.90
21563;DHT22;10942;47.894;11.424;2024-03-23T16:15:57;6.50;99.90
21563;DHT22;10942;47.894;11.424;2024-03-23T16:18:27;6.60;99.90
21563;DHT22;10942;47.894;11.424;2024-03-23T16:23:18;6.70;99.90
21563;DHT22;10942;47.894;11.424;2024-03-23T16:25:51;6.60;99.90
21563;DHT22;10942;47.894;11.424;2024-03-23T16:28:32;6.70;99.90
21563;DHT22;10942;47.894;11.424;2024-03-23T16:31:00;6.60;99.90
21563;DHT22;10942;47.894;11.424;2024-03-23T16:33:26;6.50;99.90
21563;DHT22;10942;47.894;11.424;2024-03-23T16:36:11;6.40;99.90
21563;DHT22;10942;47.894;11.424;2024-03-23T16:38:41;6.40;99.90
21563;DHT22;10942;47.894;11.424;2024-03-23T16:41:11;6.30;99.90
21563;DHT22;10942;47.894;11.424;2024-03-23T16:43:39;6.40;99.90
21563;DHT22;10942;47.894;11.424;2024-03-23T16:46:08;6.20;99.90
21563;DHT22;10942;47.894;11.424;2024-03-23T16:48:40;6.10;99.90
21563;DHT22;10942;47.894;11.424;2024-03-23T16:51:06;6.20;99.90
21563;DHT22;10942;47.894;11.424;2024-03-23T16:53:33;6.20;99.90
21563;DHT22;10942;47.894;11.424;2024-03-23T16:58:25;6.20;99.90
21563;DHT22;10942;47.894;11.424;2024-03-23T17:00:51;6.10;99.90
21563;DHT22;10942;47.894;11.424;2024-03-23T17:03:19;5.80;99.90
21563;DHT22;10942;47.894;11.424;2024-03-23T17:05:47;5.70;99.90
21563;DHT22;10942;47.894;11.424;2024-03-23T17:08:13;5.60;99.90
21563;DHT22;10942;47.894;11.424;2024-03-23T17:10:39;5.60;99.90
21563;DHT22;10942;47.894;11.424;2024-03-23T17:13:05;5.60;99.90
21563;DHT22;10942;47.894;11.424;2024-03-23T17:15:31;5.80;99.90
21563;DHT22;10942;47.894;11.424;2024-03-23T17:17:57;5.70;99.90
21563;DHT22;10942;47.894;11.424;2024-03-23T17:20:22;5.50;99.90
21563;DHT22;10942;47.894;11.424;2024-03-23T17:22:55;5.40;99.90
21563;DHT22;10942;47.894;11.424;2024-03-23T17:25:21;5.10;99.90
21563;DHT22;10942;47.894;11.424;2024-03-23T17:27:47;5.00;99.90
21563;DHT22;10942;47.894;11.424;2024-03-23T17:30:14;5.00;99.90
21563;DHT22;10942;47.894;11.424;2024-03-23T17:32:44;5.00;99.90
21563;DHT22;10942;47.894;11.424;2024-03-23T17:35:11;5.10;99.90
21563;DHT22;10942;47.894;11.424;2024-03-23T17:37:37;5.10;99.90
21563;DHT22;10942;47.894;11.424;2024-03-23T17:40:04;5.10;99.90
21563;DHT22;10942;47.894;11.424;2024-03-23T17:42:33;5.10;99.90
21563;DHT22;10942;47.894;11.424;2024-03-23T17:44:59;5.10;99.90
21563;DHT22;10942;47.894;11.424;2024-03-23T17:47:25;5.20;99.90
21563;DHT22;10942;47.894;11.424;2024-03-23T17:49:50;5.10;99.90
21563;DHT22;10942;47.894;11.424;2024-03-23T17:52:16;5.20;99.90
21563;DHT22;10942;47.894;11.424;2024-03-23T17:54:41;5.20;99.90
21563;DHT22;10942;47.894;11.424;2024-03-23T17:57:07;5.20;99.90
21563;DHT22;10942;47.894;11.424;2024-03-23T17:59:33;5.30;99.90
21563;DHT22;10942;47.894;11.424;2024-03-23T18:01:59;5.30;99.90
21563;DHT22;10942;47.894;11.424;2024-03-23T18:04:25;5.30;99.90
21563;DHT22;10942;47.894;11.424;2024-03-23T18:06:51;5.30;99.90
21563;DHT22;10942;47.894;11.424;2024-03-23T18:09:17;5.30;99.90
21563;DHT22;10942;47.894;11.424;2024-03-23T18:11:43;5.20;99.90
21563;DHT22;10942;47.894;11.424;2024-03-23T18:14:09;5.20;99.90
21563;DHT22;10942;47.894;11.424;2024-03-23T18:16:35;5.10;99.90
21563;DHT22;10942;47.894;11.424;2024-03-23T18:19:01;5.10;99.90
21563;DHT22;10942;47.894;11.424;2024-03-23T18:21:26;5.10;99.90
21563;DHT22;10942;47.894;11.424;2024-03-23T18:23:52;5.10;99.90
21563;DHT22;10942;47.894;11.424;2024-03-23T18:26:18;5.00;99.90
21563;DHT22;10942;47.894;11.424;2024-03-23T18:28:50;5.00;99.90
21563;DHT22;10942;47.894;11.424;2024-03-23T18:31:17;4.90;99.90
21563;DHT22;10942;47.894;11.424;2024-03-23T18:33:43;4.90;99.90
21563;DHT22;10942;47.894;11.424;2024-03-23T18:36:09;4.80;99.90
21563;DHT22;10942;47.894;11.424;2024-03-23T18:38:36;4.70;99.90
21563;DHT22;10942;47.894;11.424;2024-03-23T18:41:02;4.80;99.90
21563;DHT22;10942;47.894;11.424;2024-03-23T18:43:28;4.80;99.90
21563;DHT22;10942;47.894;11.424;2024-03-23T18:45:54;4.70;99.90
21563;DHT22;10942;47.894;11.424;2024-03-23T18:48:19;4.70;99.90
21563;DHT22;10942;47.894;11.424;2024-03-23T18:50:46;4.80;99.90
21563;DHT22;10942;47.894;11.424;2024-03-23T18:53:12;4.80;99.90
21563;DHT22;10942;47.894;11.424;2024-03-23T18:55:42;4.70;99.90
21563;DHT22;10942;47.894;11.424;2024-03-23T18:58:15;4.80;99.90
21563;DHT22;10942;47.894;11.424;2024-03-23T19:00:41;4.80;99.90
21563;DHT22;10942;47.894;11.424;2024-03-23T19:03:08;4.80;99.90
21563;DHT22;10942;47.894;11.424;2024-03-23T19:05:34;4.80;99.90
21563;DHT22;10942;47.894;11.424;2024-03-23T19:08:00;4.60;99.90
21563;DHT22;10942;47.894;11.424;2024-03-23T19:10:26;4.70;99.90
21563;DHT22;10942;47.894;11.424;2024-03-23T19:12:51;4.70;99.90
21563;DHT22;10942;47.894;11.424;2024-03-23T19:15:17;4.70;99.90
21563;DHT22;10942;47.894;11.424;2024-03-23T19:17:43;4.60;99.90
21563;DHT22;10942;47.894;11.424;2024-03-23T19:20:09;4.70;99.90
21563;DHT22;10942;47.894;11.424;2024-03-23T19:22:36;4.70;99.90
21563;DHT22;10942;47.894;11.424;2024-03-23T19:25:01;4.60;99.90
21563;DHT22;10942;47.894;11.424;2024-03-23T19:27:30;4.70;99.90
21563;DHT22;10942;47.894;11.424;2024-03-23T19:29:56;4.70;99.90
21563;DHT22;10942;47.894;11.424;2024-03-23T19:32:22;4.70;99.90
21563;DHT22;10942;47.894;11.424;2024-03-23T19:34:48;4.60;99.90
21563;DHT22;10942;47.894;11.424;2024-03-23T19:37:14;4.60;99.90
21563;DHT22;10942;47.894;11.424;2024-03-23T19:39:39;4.60;99.90
21563;DHT22;10942;47.894;11.424;2024-03-23T19:42:08;4.50;99.90
21563;DHT22;10942;47.894;11.424;2024-03-23T19:44:34;4.60;99.90
21563;DHT22;10942;47.894;11.424;2024-03-23T19:47:02;4.60;99.90
21563;DHT22;10942;47.894;11.424;2024-03-23T19:49:29;4.60;99.90
21563;DHT22;10942;47.894;11.424;2024-03-23T19:51:54;4.60;99.90
21563;DHT22;10942;47.894;11.424;2024-03-23T19:54:20;4.60;99.90
21563;DHT22;10942;47.894;11.424;2024-03-23T19:56:46;4.60;99.90
21563;DHT22;10942;47.894;11.424;2024-03-23T19:59:12;4.60;99.90
21563;DHT22;10942;47.894;11.424;2024-03-23T20:01:38;4.60;99.90
21563;DHT22;10942;47.894;11.424;2024-03-23T20:04:04;4.70;99.90
21563;DHT22;10942;47.894;11.424;2024-03-23T20:06:30;4.60;99.90
21563;DHT22;10942;47.894;11.424;2024-03-23T20:08:55;4.60;99.90
21563;DHT22;10942;47.894;11.424;2024-03-23T20:11:25;4.60;99.90
21563;DHT22;10942;47.894;11.424;2024-03-23T20:13:51;4.60;99.90
21563;DHT22;10942;47.894;11.424;2024-03-23T20:16:17;4.60;99.90
21563;DHT22;10942;47.894;11.424;2024-03-23T20:18:42;4.60;99.90
21563;DHT22;10942;47.894;11.424;2024-03-23T20:21:08;4.60;99.90
21563;DHT22;10942;47.894;11.424;2024-03-23T20:23:34;4.60;99.90
21563;DHT22;10942;47.894;11.424;2024-03-23T20:26:03;4.60;99.90
21563;DHT22;10942;47.894;11.424;2024-03-23T20:28:30;4.60;99.90
21563;DHT22;10942;47.894;11.424;2024-03-23T20:31:00;4.60;99.90
21563;DHT22;10942;47.894;11.424;2024-03-23T20:43:18;4.40;99.90
21563;DHT22;10942;47.894;11.424;2024-03-23T20:45:44;4.50;99.90
21563;DHT22;10942;47.894;11.424;2024-03-23T20:48:10;4.50;99.90
21563;DHT22;10942;47.894;11.424;2024-03-23T20:50:39;4.40;99.90
21563;DHT22;10942;47.894;11.424;2024-03-23T20:53:04;3.10;99.90
21563;DHT22;10942;47.894;11.424;2024-03-23T20:57:57;4.10;99.90
21563;DHT22;10942;47.894;11.424;2024-03-23T21:02:49;4.10;99.90
21563;DHT22;10942;47.894;11.424;2024-03-23T21:05:15;4.00;99.90
21563;DHT22;10942;47.894;11.424;2024-03-23T21:07:40;4.00;99.90
21563;DHT22;10942;47.894;11.424;2024-03-23T21:12:32;3.90;99.90
21563;DHT22;10942;47.894;11.424;2024-03-23T21:14:58;3.60;99.90
21563;DHT22;10942;47.894;11.424;2024-03-23T21:17:26;3.50;99.90
21563;DHT22;10942;47.894;11.424;2024-03-23T21:19:52;3.50;99.90
21563;DHT22;10942;47.894;11.424;2024-03-23T21:22:17;3.60;99.90
21563;DHT22;10942;47.894;11.424;2024-03-23T21:24:43;3.60;99.90
21563;DHT22;10942;47.894;11.424;2024-03-23T21:27:09;3.60;99.90
21563;DHT22;10942;47.894;11.424;2024-03-23T21:29:35;3.70;99.90
21563;DHT22;10942;47.894;11.424;2024-03-23T21:32:00;3.70;99.90
21563;DHT22;10942;47.894;11.424;2024-03-23T21:34:27;3.70;99.90
21563;DHT22;10942;47.894;11.424;2024-03-23T21:36:52;3.60;99.90
21563;DHT22;10942;47.894;11.424;2024-03-23T21:39:19;3.60;99.90
21563;DHT22;10942;47.894;11.424;2024-03-23T21:41:46;3.60;99.90
21563;DHT22;10942;47.894;11.424;2024-03-23T21:44:12;3.50;99.90
21563;DHT22;10942;47.894;11.424;2024-03-23T21:46:40;3.60;99.90
21563;DHT22;10942;47.894;11.424;2024-03-23T21:49:05;3.50;99.90
21563;DHT22;10942;47.894;11.424;2024-03-23T21:51:31;3.60;99.90
21563;DHT22;10942;47.894;11.424;2024-03-23T21:54:00;3.60;99.90
21563;DHT22;10942;47.894;11.424;2024-03-23T21:56:29;3.60;99.90
21563;DHT22;10942;47.894;11.424;2024-03-23T21:58:57;3.60;99.90
21563;DHT22;10942;47.894;11.424;2024-03-23T22:01:23;3.60;99.90
21563;DHT22;10942;47.894;11.424;2024-03-23T22:03:50;3.70;99.90
21563;DHT22;10942;47.894;11.424;2024-03-23T22:06:17;3.70;99.90
21563;DHT22;10942;47.894;11.424;2024-03-23T22:08:43;3.70;99.90
21563;DHT22;10942;47.894;11.424;2024-03-23T22:11:09;3.60;99.90
21563;DHT22;10942;47.894;11.424;2024-03-23T22:13:34;3.50;99.90
21563;DHT22;10942;47.894;11.424;2024-03-23T22:16:01;3.50;99.90
21563;DHT22;10942;47.894;11.424;2024-03-23T22:18:28;3.50;99.90
21563;DHT22;10942;47.894;11.424;2024-03-23T22:21:01;3.60;99.90
21563;DHT22;10942;47.894;11.424;2024-03-23T22:23:27;3.50;99.90
21563;DHT22;10942;47.894;11.424;2024-03-23T22:25:53;3.60;99.90
21563;DHT22;10942;47.894;11.424;2024-03-23T22:28:24;3.70;99.90
21563;DHT22;10942;47.894;11.424;2024-03-23T22:31:03;3.60;99.90
21563;DHT22;10942;47.894;11.424;2024-03-23T22:33:30;3.60;99.90
21563;DHT22;10942;47.894;11.424;2024-03-23T22:35:56;3.60;99.90
21563;DHT22;10942;47.894;11.424;2024-03-23T22:38:26;3.40;99.90
21563;DHT22;10942;47.894;11.424;2024-03-23T22:40:59;3.50;99.90
21563;DHT22;10942;47.894;11.424;2024-03-23T22:43:26;3.40;99.90
21563;DHT22;10942;47.894;11.424;2024-03-23T22:45:56;3.30;99.90
21563;DHT22;10942;47.894;11.424;2024-03-23T22:48:24;3.30;99.90
21563;DHT22;10942;47.894;11.424;2024-03-23T22:50:50;3.30;99.90
21563;DHT22;10942;47.894;11.424;2024-03-23T22:53:17;3.20;99.90
21563;DHT22;10942;47.894;11.424;2024-03-23T22:55:50;3.20;99.90
21563;DHT22;10942;47.894;11.424;2024-03-23T23:00:43;3.10;99.90
21563;DHT22;10942;47.894;11.424;2024-03-23T23:03:12;3.10;99.90
21563;DHT22;10942;47.894;11.424;2024-03-23T23:05:39;3.10;99.90
21563;DHT22;10942;47.894;11.424;2024-03-23T23:08:06;3.10;99.90
21563;DHT22;10942;47.894;11.424;2024-03-23T23:10:32;3.20;99.90
21563;DHT22;10942;47.894;11.424;2024-03-23T23:12:58;3.20;99.90
21563;DHT22;10942;47.894;11.424;2024-03-23T23:15:24;3.10;99.90
21563;DHT22;10942;47.894;11.424;2024-03-23T23:17:50;3.10;99.90
21563;DHT22;10942;47.894;11.424;2024-03-23T23:20:16;3.20;99.90
21563;DHT22;10942;47.894;11.424;2024-03-23T23:22:42;3.10;99.90
21563;DHT22;10942;47.894;11.424;2024-03-23T23:25:08;3.30;99.90
21563;DHT22;10942;47.894;11.424;2024-03-23T23:27:35;3.30;99.90
21563;DHT22;10942;47.894;11.424;2024-03-23T23:30:05;3.30;99.90
21563;DHT22;10942;47.894;11.424;2024-03-23T23:32:31;3.30;99.90
21563;DHT22;10942;47.894;11.424;2024-03-23T23:35:01;3.30;99.90
21563;DHT22;10942;47.894;11.424;2024-03-23T23:37:28;3.30;99.90
21563;DHT22;10942;47.894;11.424;2024-03-23T23:39:55;3.30;99.90
21563;DHT22;10942;47.894;11.424;2024-03-23T23:42:21;3.20;99.90
21563;DHT22;10942;47.894;11.424;2024-03-23T23:44:47;3.20;99.90
21563;DHT22;10942;47.894;11.424;2024-03-23T23:47:13;3.10;99.90
21563;DHT22;10942;47.894;11.424;2024-03-23T23:49:39;3.10;99.90
21563;DHT22;10942;47.894;11.424;2024-03-23T23:52:05;3.10;99.90
21563;DHT22;10942;47.894;11.424;2024-03-23T23:54:31;3.20;99.90
21563;DHT22;10942;47.894;11.424;2024-03-23T23:56:57;3.20;99.90
21563;DHT22;10942;47.894;11.424;2024-03-23T23:59:23;3.10;99.90
